createdAt,value
2023-05-16T00:00:19.125Z,0.75
2023-05-16T00:03:21.985Z,0.55
2023-05-16T00:06:24.912Z,0.60
2023-05-16T00:09:27.875Z,0.50
2023-05-16T00:12:30.968Z,0.70
2023-05-16T00:15:33.771Z,0.70
2023-05-16T00:18:39.338Z,1.35
2023-05-16T00:21:42.128Z,1.00
2023-05-16T00:24:44.933Z,0.63
2023-05-16T00:27:47.884Z,0.70
2023-05-16T00:30:51.426Z,0.80
2023-05-16T00:33:55.097Z,0.80
2023-05-16T00:36:57.676Z,1.10
2023-05-16T00:40:00.644Z,1.15
2023-05-16T00:43:03.307Z,1.00
2023-05-16T00:46:06.309Z,0.70
2023-05-16T00:49:09.737Z,0.90
2023-05-16T00:52:14.221Z,0.80
2023-05-16T00:55:17.059Z,0.90
2023-05-16T00:58:20.131Z,1.05
2023-05-16T01:01:24.916Z,0.98
2023-05-16T01:04:28.920Z,1.25
2023-05-16T01:07:32.353Z,0.93
2023-05-16T01:10:49.225Z,0.98
2023-05-16T01:17:16.347Z,1.00
2023-05-16T01:20:41.038Z,0.90
2023-05-16T01:23:57.894Z,0.95
2023-05-16T01:27:00.781Z,0.60
2023-05-16T01:30:14.324Z,0.77
2023-05-16T01:33:17.269Z,0.70
2023-05-16T01:36:41.893Z,0.50
2023-05-16T01:40:13.865Z,0.75
2023-05-16T01:43:20.702Z,1.02
2023-05-16T01:46:30.305Z,0.57
2023-05-16T01:49:41.769Z,0.70
2023-05-16T01:52:51.483Z,0.90
2023-05-16T01:55:57.261Z,1.00
2023-05-16T01:59:00.110Z,0.82
2023-05-16T02:02:03.184Z,0.52
2023-05-16T02:05:07.380Z,1.00
2023-05-16T02:08:10.142Z,0.80
2023-05-16T02:11:12.905Z,0.88
2023-05-16T02:14:15.713Z,0.88
2023-05-16T02:17:18.398Z,1.00
2023-05-16T02:20:21.448Z,1.08
2023-05-16T02:23:24.252Z,0.80
2023-05-16T02:26:27.173Z,1.25
2023-05-16T02:29:29.929Z,1.42
2023-05-16T02:32:33.423Z,1.20
2023-05-16T02:35:36.112Z,1.52
2023-05-16T02:38:38.961Z,1.10
2023-05-16T02:41:41.992Z,1.15
2023-05-16T02:44:46.630Z,0.80
2023-05-16T02:47:49.523Z,1.10
2023-05-16T02:50:54.582Z,1.00
2023-05-16T02:53:57.486Z,1.33
2023-05-16T02:57:00.231Z,0.90
2023-05-16T03:00:03.263Z,1.13
2023-05-16T03:03:06.345Z,1.27
2023-05-16T03:06:09.148Z,1.30
2023-05-16T03:09:12.098Z,1.30
2023-05-16T03:12:14.921Z,1.75
2023-05-16T03:15:17.762Z,1.27
2023-05-16T03:18:20.520Z,1.38
2023-05-16T03:21:23.341Z,1.20
2023-05-16T03:24:26.570Z,1.48
2023-05-16T03:27:29.596Z,1.20
2023-05-16T03:30:32.412Z,1.52
2023-05-16T03:33:35.425Z,1.30
2023-05-16T03:36:39.858Z,1.88
2023-05-16T03:39:42.595Z,1.65
2023-05-16T03:42:45.530Z,1.77
2023-05-16T03:45:48.547Z,1.60
2023-05-16T03:48:51.434Z,2.08
2023-05-16T03:51:55.332Z,1.75
2023-05-16T03:54:57.981Z,1.30
2023-05-16T03:58:00.755Z,1.45
2023-05-16T04:01:04.253Z,1.60
2023-05-16T04:04:07.485Z,1.48
2023-05-16T04:07:10.308Z,1.67
2023-05-16T04:10:13.324Z,1.30
2023-05-16T04:13:16.722Z,1.20
2023-05-16T04:16:19.607Z,1.65
2023-05-16T04:19:22.568Z,1.30
2023-05-16T04:22:25.343Z,1.20
2023-05-16T04:25:29.764Z,1.30
2023-05-16T04:28:32.809Z,1.10
2023-05-16T04:31:35.582Z,1.83
2023-05-16T04:34:40.042Z,2.00
2023-05-16T04:37:43.239Z,1.00
2023-05-16T04:40:46.130Z,1.33
2023-05-16T04:43:49.378Z,1.50
2023-05-16T04:46:53.317Z,2.38
2023-05-16T04:49:56.613Z,1.70
2023-05-16T04:53:03.992Z,1.50
2023-05-16T04:56:07.266Z,1.35
2023-05-16T04:59:10.063Z,1.75
2023-05-16T05:02:13.184Z,1.40
2023-05-16T05:05:17.273Z,1.30
2023-05-16T05:08:20.329Z,1.63
2023-05-16T05:11:23.535Z,1.30
2023-05-16T05:14:26.636Z,1.60
2023-05-16T05:17:30.091Z,1.40
2023-05-16T05:20:33.053Z,1.67
2023-05-16T05:23:36.127Z,1.58
2023-05-16T05:26:38.866Z,1.95
2023-05-16T05:29:41.703Z,1.80
2023-05-16T05:32:44.493Z,2.13
2023-05-16T05:35:47.131Z,2.10
2023-05-16T05:38:49.935Z,1.77
2023-05-16T05:41:52.998Z,2.05
2023-05-16T05:44:56.007Z,2.08
2023-05-16T05:47:58.954Z,2.10
2023-05-16T05:51:01.870Z,1.58
2023-05-16T05:54:04.631Z,2.00
2023-05-16T05:57:07.439Z,1.85
2023-05-16T06:00:13.986Z,2.28
2023-05-16T06:03:50.006Z,2.10
2023-05-16T06:07:02.320Z,2.53
2023-05-16T06:10:09.171Z,2.78
2023-05-16T06:13:15.017Z,2.40
2023-05-16T06:16:18.246Z,2.65
2023-05-16T06:19:22.921Z,1.98
2023-05-16T06:22:25.970Z,2.20
2023-05-16T06:25:28.967Z,1.98
2023-05-16T06:28:32.058Z,1.77
2023-05-16T06:31:34.963Z,1.98
2023-05-16T06:34:37.981Z,1.70
2023-05-16T06:37:42.937Z,1.45
2023-05-16T06:40:46.321Z,1.60
2023-05-16T06:43:49.866Z,1.65
2023-05-16T06:46:52.819Z,1.58
2023-05-16T06:49:55.764Z,1.38
2023-05-16T06:53:05.552Z,1.73
2023-05-16T06:56:11.500Z,0.90
2023-05-16T06:59:17.578Z,1.10
2023-05-16T07:02:21.335Z,1.17
2023-05-16T07:05:26.873Z,1.42
2023-05-16T07:08:39.417Z,1.48
2023-05-16T07:11:50.262Z,1.65
2023-05-16T07:14:59.312Z,1.60
2023-05-16T07:18:12.192Z,1.52
2023-05-16T07:21:19.059Z,1.80
2023-05-16T07:27:25.028Z,1.90
2023-05-16T07:30:28.008Z,2.20
2023-05-16T07:33:33.825Z,2.20
2023-05-16T07:36:36.922Z,3.67
2023-05-16T07:39:41.891Z,2.90
2023-05-16T07:42:45.140Z,3.17
2023-05-16T07:45:49.696Z,2.40
2023-05-16T07:48:52.743Z,2.53
2023-05-16T07:51:57.020Z,2.83
2023-05-16T07:54:59.958Z,2.75
2023-05-16T07:58:03.834Z,3.38
2023-05-16T08:01:07.381Z,3.08
2023-05-16T08:04:14.689Z,2.55
2023-05-16T08:07:18.868Z,3.20
2023-05-16T08:10:23.932Z,3.78
2023-05-16T08:13:26.917Z,2.80
2023-05-16T08:16:32.901Z,2.72
2023-05-16T08:19:36.155Z,2.73
2023-05-16T08:22:39.166Z,2.80
2023-05-16T08:25:41.934Z,2.70
2023-05-16T08:28:47.821Z,3.30
2023-05-16T08:31:51.078Z,2.72
2023-05-16T08:34:54.214Z,2.78
2023-05-16T08:37:56.992Z,2.47
2023-05-16T08:40:59.848Z,2.17
2023-05-16T08:44:05.169Z,2.72
2023-05-16T08:47:15.968Z,2.78
2023-05-16T08:50:19.249Z,3.05
2023-05-16T08:53:24.328Z,2.50
2023-05-16T08:56:28.865Z,2.40
2023-05-16T08:59:32.317Z,2.65
2023-05-16T09:02:35.317Z,2.80
2023-05-16T09:05:38.896Z,2.35
2023-05-16T09:08:42.342Z,2.10
2023-05-16T09:11:45.381Z,2.45
2023-05-16T09:14:48.361Z,2.10
2023-05-16T09:17:51.804Z,2.15
2023-05-16T09:20:55.113Z,2.08
2023-05-16T09:23:58.345Z,1.90
2023-05-16T09:27:09.257Z,2.20
2023-05-16T09:30:16.271Z,2.40
2023-05-16T09:36:21.526Z,2.35
2023-05-16T09:39:27.847Z,2.42
2023-05-16T09:42:31.875Z,2.03
2023-05-16T09:45:36.862Z,3.10
2023-05-16T09:48:42.522Z,2.58
2023-05-16T09:51:46.376Z,3.17
2023-05-16T09:54:50.394Z,2.67
2023-05-16T09:57:53.394Z,2.78
2023-05-16T10:00:57.086Z,2.47
2023-05-16T10:04:00.294Z,2.80
2023-05-16T10:07:05.046Z,2.85
2023-05-16T10:10:08.946Z,2.75
2023-05-16T10:13:12.301Z,3.35
2023-05-16T10:16:15.419Z,2.92
2023-05-16T10:19:21.020Z,2.70
2023-05-16T10:22:24.171Z,2.80
2023-05-16T10:25:33.135Z,3.88
2023-05-16T10:28:39.945Z,3.50
2023-05-16T10:31:42.971Z,3.50
2023-05-16T10:34:46.772Z,2.95
2023-05-16T10:37:51.576Z,3.17
2023-05-16T10:40:54.599Z,3.17
2023-05-16T10:43:58.672Z,3.83
2023-05-16T10:47:01.836Z,4.05
2023-05-16T10:50:04.968Z,4.00
2023-05-16T10:53:22.593Z,5.00
2023-05-16T10:56:27.282Z,5.18
2023-05-16T10:59:30.226Z,3.78
2023-05-16T11:02:35.165Z,3.97
2023-05-16T11:05:38.233Z,3.33
2023-05-16T11:09:10.815Z,4.60
2023-05-16T11:12:14.123Z,4.22
2023-05-16T11:15:28.944Z,3.38
2023-05-16T11:18:33.966Z,3.78
2023-05-16T11:22:08.102Z,3.08
2023-05-16T11:25:11.434Z,4.20
2023-05-16T11:28:15.145Z,3.92
2023-05-16T11:31:18.652Z,3.83
2023-05-16T11:34:21.845Z,3.85
2023-05-16T11:37:24.809Z,4.13
2023-05-16T11:40:27.943Z,3.20
2023-05-16T11:43:31.443Z,3.70
2023-05-16T11:46:34.572Z,3.58
2023-05-16T11:49:37.864Z,3.67
2023-05-16T11:52:41.349Z,3.10
2023-05-16T11:55:45.302Z,3.38
2023-05-16T11:58:51.266Z,2.70
2023-05-16T12:01:54.232Z,3.10
2023-05-16T12:04:57.272Z,3.47
2023-05-16T12:08:00.234Z,3.40
2023-05-16T12:11:03.481Z,3.35
2023-05-16T12:14:07.849Z,2.83
2023-05-16T12:17:10.843Z,3.40
2023-05-16T12:20:21.268Z,3.40
2023-05-16T12:23:24.255Z,3.80
2023-05-16T12:26:33.915Z,3.67
2023-05-16T12:29:37.101Z,4.05
2023-05-16T12:32:40.555Z,3.60
2023-05-16T12:35:46.059Z,3.42
2023-05-16T12:38:49.225Z,3.65
2023-05-16T12:41:51.999Z,3.78
2023-05-16T12:44:58.473Z,4.63
2023-05-16T12:48:09.731Z,2.22
2023-05-16T12:51:14.827Z,2.88
2023-05-16T12:54:18.015Z,3.35
2023-05-16T12:57:20.959Z,3.50
2023-05-16T13:00:24.029Z,3.00
2023-05-16T13:03:28.287Z,3.50
2023-05-16T13:06:44.985Z,3.70
2023-05-16T13:09:54.526Z,3.75
2023-05-16T13:13:00.396Z,4.35
2023-05-16T13:16:06.120Z,3.47
2023-05-16T13:19:09.276Z,3.22
2023-05-16T13:22:12.311Z,3.15
2023-05-16T13:25:18.185Z,3.90
2023-05-16T13:28:21.469Z,2.67
2023-05-16T13:31:24.615Z,3.20
2023-05-16T13:34:27.682Z,3.00
2023-05-16T13:37:30.797Z,2.80
2023-05-16T13:40:34.320Z,3.63
2023-05-16T13:43:37.412Z,2.55
2023-05-16T13:46:40.340Z,2.55
2023-05-16T13:49:43.749Z,2.65
2023-05-16T13:52:48.024Z,2.63
2023-05-16T13:55:50.843Z,3.20
2023-05-16T13:59:02.490Z,3.20
2023-05-16T14:02:09.519Z,2.15
2023-05-16T14:05:12.628Z,2.53
2023-05-16T14:08:15.648Z,3.00
2023-05-16T14:11:20.516Z,3.15
2023-05-16T14:14:23.366Z,3.03
2023-05-16T14:17:26.556Z,3.33
2023-05-16T14:20:29.738Z,3.58
2023-05-16T14:23:32.841Z,3.00
2023-05-16T14:26:35.682Z,7.72
2023-05-16T14:29:38.662Z,2.50
2023-05-16T14:32:41.524Z,2.30
2023-05-16T14:35:44.549Z,5.95
2023-05-16T14:38:49.554Z,3.70
2023-05-16T14:41:52.504Z,2.78
2023-05-16T14:44:55.503Z,2.85
2023-05-16T14:47:58.300Z,3.38
2023-05-16T14:51:01.364Z,3.78
2023-05-16T14:54:04.571Z,3.42
2023-05-16T14:57:07.731Z,3.40
2023-05-16T15:00:12.214Z,2.97
2023-05-16T15:03:17.439Z,2.40
2023-05-16T15:06:20.719Z,2.90
2023-05-16T15:09:23.790Z,2.70
2023-05-16T15:12:26.608Z,2.80
2023-05-16T15:15:29.430Z,3.03
2023-05-16T15:18:32.481Z,2.17
2023-05-16T15:21:35.338Z,2.88
2023-05-16T15:24:38.078Z,2.28
2023-05-16T15:27:41.210Z,2.60
2023-05-16T15:30:44.102Z,2.35
2023-05-16T15:33:48.640Z,1.85
2023-05-16T15:36:52.255Z,1.65
2023-05-16T15:39:55.325Z,1.77
2023-05-16T15:42:58.164Z,1.65
2023-05-16T15:46:01.255Z,1.90
2023-05-16T15:49:04.343Z,1.65
2023-05-16T15:52:07.514Z,1.77
2023-05-16T15:55:12.337Z,1.90
2023-05-16T15:58:15.361Z,1.65
2023-05-16T16:01:18.224Z,1.65
2023-05-16T16:04:23.358Z,1.52
2023-05-16T16:07:27.037Z,1.67
2023-05-16T16:10:29.985Z,1.48
2023-05-16T16:13:33.473Z,1.33
2023-05-16T16:16:37.869Z,1.40
2023-05-16T16:19:41.531Z,1.70
2023-05-16T16:22:44.420Z,1.40
2023-05-16T16:25:47.603Z,1.33
2023-05-16T16:28:53.294Z,1.40
2023-05-16T16:31:56.635Z,1.65
2023-05-16T16:34:59.621Z,1.30
2023-05-16T16:38:07.170Z,1.50
2023-05-16T16:41:10.711Z,1.55
2023-05-16T16:44:14.026Z,1.40
2023-05-16T16:47:17.444Z,1.40
2023-05-16T16:50:32.834Z,1.48
2023-05-16T16:53:38.246Z,1.10
2023-05-16T16:56:41.058Z,1.40
2023-05-16T16:59:46.850Z,1.40
2023-05-16T17:02:49.929Z,1.10
2023-05-16T17:05:54.248Z,1.20
2023-05-16T17:08:57.046Z,1.30
2023-05-16T17:12:04.923Z,1.30
2023-05-16T17:15:08.573Z,1.23
2023-05-16T17:18:11.607Z,1.25
2023-05-16T17:21:14.498Z,1.05
2023-05-16T17:24:19.926Z,1.48
2023-05-16T17:27:22.622Z,1.60
2023-05-16T17:30:26.540Z,1.20
2023-05-16T17:33:29.443Z,1.48
2023-05-16T17:36:32.343Z,1.50
2023-05-16T17:39:35.213Z,1.58
2023-05-16T17:42:38.836Z,1.70
2023-05-16T17:45:41.628Z,2.35
2023-05-16T17:48:44.610Z,2.00
2023-05-16T17:51:47.842Z,1.90
2023-05-16T17:54:50.604Z,1.70
2023-05-16T17:57:53.512Z,1.60
2023-05-16T18:00:56.497Z,1.90
2023-05-16T18:03:59.780Z,1.63
2023-05-16T18:07:03.398Z,2.10
2023-05-16T18:10:06.855Z,2.30
2023-05-16T18:13:09.795Z,2.10
2023-05-16T18:16:13.037Z,2.42
2023-05-16T18:19:16.023Z,2.30
2023-05-16T18:22:18.994Z,2.00
2023-05-16T18:25:22.295Z,2.15
2023-05-16T18:28:25.224Z,2.65
2023-05-16T18:31:28.109Z,2.78
2023-05-16T18:34:30.832Z,2.92
2023-05-16T18:37:33.754Z,2.90
2023-05-16T18:40:36.584Z,2.50
2023-05-16T18:43:39.430Z,2.80
2023-05-16T18:46:42.242Z,3.28
2023-05-16T18:49:45.077Z,4.10
2023-05-16T18:52:48.065Z,4.43
2023-05-16T18:55:51.288Z,4.82
2023-05-16T18:58:54.112Z,5.50
2023-05-16T19:01:56.978Z,4.07
2023-05-16T19:05:01.616Z,2.97
2023-05-16T19:08:05.963Z,2.88
2023-05-16T19:11:09.154Z,2.72
2023-05-16T19:14:12.183Z,3.22
2023-05-16T19:17:15.286Z,3.42
2023-05-16T19:20:18.221Z,3.70
2023-05-16T19:23:21.051Z,3.72
2023-05-16T19:26:24.357Z,3.47
2023-05-16T19:29:27.217Z,3.83
2023-05-16T19:32:30.728Z,3.60
2023-05-16T19:35:33.500Z,3.25
2023-05-16T19:38:36.521Z,4.18
2023-05-16T19:41:39.471Z,4.57
2023-05-16T19:44:43.198Z,4.50
2023-05-16T19:47:46.111Z,6.05
2023-05-16T19:50:49.061Z,6.40
2023-05-16T19:53:52.014Z,6.00
2023-05-16T19:56:55.848Z,6.00
2023-05-16T19:59:58.804Z,5.85
2023-05-16T20:03:01.723Z,4.57
2023-05-16T20:06:05.034Z,4.15
2023-05-16T20:09:08.439Z,4.45
2023-05-16T20:12:11.463Z,4.85
2023-05-16T20:15:14.637Z,4.35
2023-05-16T20:18:18.008Z,4.30
2023-05-16T20:21:20.873Z,4.28
2023-05-16T20:24:23.751Z,3.67
2023-05-16T20:27:26.614Z,3.20
2023-05-16T20:30:30.565Z,3.63
2023-05-16T20:33:33.739Z,4.20
2023-05-16T20:36:36.881Z,3.97
2023-05-16T20:39:40.449Z,3.40
2023-05-16T20:42:43.540Z,3.67
2023-05-16T20:45:46.415Z,3.75
2023-05-16T20:48:49.649Z,3.13
2023-05-16T20:51:52.775Z,2.65
2023-05-16T20:54:55.528Z,2.85
2023-05-16T20:57:59.092Z,2.40
2023-05-16T21:01:02.717Z,2.30
2023-05-16T21:04:05.802Z,3.15
2023-05-16T21:07:08.865Z,2.53
2023-05-16T21:10:11.855Z,1.98
2023-05-16T21:13:14.862Z,1.52
2023-05-16T21:16:17.869Z,1.55
2023-05-16T21:19:21.372Z,1.20
2023-05-16T21:22:24.945Z,1.20
2023-05-16T21:25:27.957Z,1.60
2023-05-16T21:28:32.757Z,1.30
2023-05-16T21:31:37.480Z,1.45
2023-05-16T21:34:40.401Z,1.45
2023-05-16T21:37:43.237Z,1.67
2023-05-16T21:40:48.875Z,2.13
2023-05-16T21:43:51.766Z,2.05
2023-05-16T21:46:54.896Z,2.25
2023-05-16T21:49:57.970Z,2.30
2023-05-16T21:53:00.995Z,2.20
2023-05-16T21:56:04.118Z,2.00
2023-05-16T21:59:09.369Z,2.63
2023-05-16T22:02:12.274Z,2.53
2023-05-16T22:05:19.503Z,2.47
2023-05-16T22:08:22.546Z,2.50
2023-05-16T22:11:25.329Z,2.63
2023-05-16T22:14:28.211Z,2.45
2023-05-16T22:17:32.036Z,1.83
2023-05-16T22:20:34.906Z,1.73
2023-05-16T22:23:39.666Z,1.73
2023-05-16T22:26:42.585Z,1.77
2023-05-16T22:29:45.381Z,1.80
2023-05-16T22:32:48.325Z,2.10
2023-05-16T22:35:51.287Z,2.20
2023-05-16T22:38:54.241Z,2.20
2023-05-16T22:41:57.111Z,1.92
2023-05-16T22:45:00.212Z,2.40
2023-05-16T22:48:03.233Z,2.33
2023-05-16T22:51:06.354Z,1.98
2023-05-16T22:54:09.216Z,2.70
2023-05-16T22:57:12.086Z,3.05
2023-05-16T23:00:15.368Z,2.50
2023-05-16T23:03:18.206Z,3.20
2023-05-16T23:06:21.098Z,3.38
2023-05-16T23:09:23.895Z,3.75
2023-05-16T23:12:27.060Z,3.75
2023-05-16T23:15:29.915Z,3.55
2023-05-16T23:18:32.985Z,3.33
2023-05-16T23:21:36.482Z,3.22
2023-05-16T23:24:39.237Z,3.05
2023-05-16T23:27:42.114Z,3.00
2023-05-16T23:30:45.398Z,2.90
2023-05-16T23:33:48.208Z,2.70
2023-05-16T23:36:51.539Z,2.80
2023-05-16T23:39:54.436Z,2.50
2023-05-16T23:42:57.254Z,2.65
2023-05-16T23:45:59.944Z,2.83
2023-05-16T23:49:02.939Z,2.25
2023-05-16T23:52:06.505Z,2.33
2023-05-16T23:55:09.970Z,2.30
2023-05-16T23:58:13.282Z,2.30
